createdAt,value
2022-11-22T00:00:07.866Z,0
2022-11-22T00:01:08.368Z,0
2022-11-22T00:02:08.632Z,0
2022-11-22T00:03:08.053Z,0
2022-11-22T00:04:08.051Z,0
2022-11-22T00:05:08.029Z,0
2022-11-22T00:06:07.759Z,0
2022-11-22T00:07:08.308Z,0
2022-11-22T00:08:08.215Z,0
2022-11-22T00:09:07.694Z,0
2022-11-22T00:10:07.938Z,0
2022-11-22T00:11:07.928Z,0
2022-11-22T00:12:07.880Z,0
2022-11-22T00:13:07.692Z,0
2022-11-22T00:14:07.910Z,0
2022-11-22T00:15:07.829Z,0
2022-11-22T00:16:08.067Z,0
2022-11-22T00:17:07.801Z,0
2022-11-22T00:18:07.784Z,0
2022-11-22T00:19:07.753Z,0
2022-11-22T00:20:07.731Z,0
2022-11-22T00:21:07.451Z,0
2022-11-22T00:22:07.706Z,0
2022-11-22T00:23:07.685Z,0
2022-11-22T00:24:07.921Z,0
2022-11-22T00:25:07.657Z,0
2022-11-22T00:26:07.161Z,0
2022-11-22T00:27:07.371Z,0
2022-11-22T00:28:07.582Z,0
2022-11-22T00:29:07.595Z,0
2022-11-22T00:30:07.865Z,0
2022-11-22T00:31:07.538Z,0
2022-11-22T00:32:07.760Z,0
2022-11-22T00:33:07.509Z,0
2022-11-22T00:34:07.466Z,0
2022-11-22T00:35:07.455Z,0
2022-11-22T00:36:07.184Z,0
2022-11-22T00:37:07.153Z,0
2022-11-22T00:38:07.139Z,0
2022-11-22T00:39:07.383Z,0
2022-11-22T00:40:07.680Z,0
2022-11-22T00:41:07.093Z,0
2022-11-22T00:42:07.318Z,0
2022-11-22T00:43:07.580Z,0
2022-11-22T00:44:07.549Z,0
2022-11-22T00:45:07.301Z,0
2022-11-22T00:46:07.290Z,0
2022-11-22T00:47:06.716Z,0
2022-11-22T00:48:07.474Z,0
2022-11-22T00:49:07.450Z,0
2022-11-22T00:50:06.725Z,0
2022-11-22T00:51:07.404Z,0
2022-11-22T00:52:07.126Z,0
2022-11-22T00:53:07.376Z,0
2022-11-22T00:54:07.101Z,0
2022-11-22T00:55:07.071Z,0
2022-11-22T00:56:06.537Z,0
2022-11-22T00:57:07.317Z,0
2022-11-22T00:58:07.038Z,0
2022-11-22T00:59:06.776Z,0
2022-11-22T01:00:06.720Z,0
2022-11-22T01:01:07.802Z,0
2022-11-22T01:02:07.262Z,0
2022-11-22T01:03:06.920Z,0
2022-11-22T01:04:07.160Z,0
2022-11-22T01:05:06.638Z,0
2022-11-22T01:06:06.880Z,0
2022-11-22T01:07:07.019Z,0
2022-11-22T01:08:06.575Z,0
2022-11-22T01:09:06.809Z,0
2022-11-22T01:10:07.071Z,0
2022-11-22T01:11:06.763Z,0
2022-11-22T01:12:06.755Z,0
2022-11-22T01:13:06.732Z,0
2022-11-22T01:14:06.790Z,0
2022-11-22T01:15:06.531Z,0
2022-11-22T01:16:06.493Z,0
2022-11-22T01:17:06.757Z,0
2022-11-22T01:18:07.030Z,0
2022-11-22T01:19:06.435Z,0
2022-11-22T01:20:06.443Z,0
2022-11-22T01:21:06.655Z,0
2022-11-22T01:22:06.388Z,0
2022-11-22T01:23:06.356Z,0
2022-11-22T01:24:06.352Z,0
2022-11-22T01:25:06.592Z,0
2022-11-22T01:26:06.557Z,0
2022-11-22T01:27:06.563Z,0
2022-11-22T01:28:06.517Z,0
2022-11-22T01:29:06.502Z,0
2022-11-22T01:30:05.980Z,0
2022-11-22T01:31:06.244Z,0
2022-11-22T01:32:06.446Z,0
2022-11-22T01:33:06.449Z,0
2022-11-22T01:34:06.462Z,0
2022-11-22T01:35:06.133Z,0
2022-11-22T01:36:06.116Z,0
2022-11-22T01:37:06.102Z,0
2022-11-22T01:38:06.327Z,0
2022-11-22T01:39:06.317Z,0
2022-11-22T01:40:06.288Z,0
2022-11-22T01:41:06.498Z,0
2022-11-22T01:42:06.256Z,0
2022-11-22T01:43:05.993Z,0
2022-11-22T01:44:06.160Z,0
2022-11-22T01:45:05.941Z,0
2022-11-22T01:46:06.432Z,0
2022-11-22T01:47:05.925Z,0
2022-11-22T01:48:06.142Z,0
2022-11-22T01:49:06.405Z,0
2022-11-22T01:50:06.155Z,0
2022-11-22T01:51:06.087Z,0
2022-11-22T01:52:05.803Z,0
2022-11-22T01:53:06.059Z,0
2022-11-22T01:54:06.043Z,0
2022-11-22T01:55:06.006Z,0
2022-11-22T01:56:05.984Z,0
2022-11-22T01:57:06.223Z,0
2022-11-22T01:58:05.951Z,0
2022-11-22T01:59:05.682Z,0
2022-11-22T02:00:05.676Z,0
2022-11-22T02:01:06.221Z,0
2022-11-22T02:02:05.380Z,0
2022-11-22T02:03:05.882Z,0
2022-11-22T02:04:05.603Z,0
2022-11-22T02:05:06.110Z,0
2022-11-22T02:06:05.864Z,0
2022-11-22T02:07:07.090Z,0
2022-11-22T02:08:06.570Z,0
2022-11-22T02:09:06.555Z,0
2022-11-22T02:10:06.289Z,0
2022-11-22T02:11:06.780Z,0
2022-11-22T02:12:06.251Z,0
2022-11-22T02:13:06.482Z,0
2022-11-22T02:14:06.455Z,0
2022-11-22T02:15:06.708Z,0
2022-11-22T02:16:06.679Z,0
2022-11-22T02:17:06.399Z,0
2022-11-22T02:18:06.377Z,0
2022-11-22T02:19:06.643Z,0
2022-11-22T02:20:06.363Z,0
2022-11-22T02:21:06.352Z,0
2022-11-22T02:22:06.613Z,0
2022-11-22T02:23:06.026Z,0
2022-11-22T02:24:06.524Z,0
2022-11-22T02:25:05.731Z,0
2022-11-22T02:26:06.484Z,0
2022-11-22T02:27:38.034Z,0
2022-11-22T02:28:06.200Z,0
2022-11-22T02:29:06.166Z,0
2022-11-22T02:30:06.413Z,0
2022-11-22T02:31:06.149Z,0
2022-11-22T02:32:06.371Z,0
2022-11-22T02:33:05.837Z,0
2022-11-22T02:34:08.833Z,0
2022-11-22T02:35:06.336Z,0
2022-11-22T02:36:06.322Z,0
2022-11-22T02:37:05.793Z,0
2022-11-22T02:38:06.053Z,0
2022-11-22T02:39:06.237Z,0
2022-11-22T02:40:05.711Z,0
2022-11-22T02:41:05.942Z,0
2022-11-22T02:42:05.413Z,0
2022-11-22T02:43:05.649Z,0
2022-11-22T02:44:05.892Z,0
2022-11-22T02:45:05.866Z,0
2022-11-22T02:46:06.102Z,0
2022-11-22T02:47:06.078Z,0
2022-11-22T02:48:05.811Z,0
2022-11-22T02:49:05.536Z,0
2022-11-22T02:50:05.523Z,0
2022-11-22T02:51:05.785Z,0
2022-11-22T02:52:05.730Z,0
2022-11-22T02:53:06.003Z,0
2022-11-22T02:54:05.998Z,0
2022-11-22T02:55:05.954Z,0
2022-11-22T02:56:05.407Z,0
2022-11-22T02:57:05.404Z,0
2022-11-22T02:58:05.625Z,0
2022-11-22T02:59:05.616Z,0
2022-11-22T03:00:05.591Z,0
2022-11-22T03:01:05.908Z,0
2022-11-22T03:02:10.167Z,0
2022-11-22T03:03:05.540Z,0
2022-11-22T03:04:05.552Z,0
2022-11-22T03:05:05.556Z,0
2022-11-22T03:06:04.958Z,0
2022-11-22T03:07:05.412Z,0
2022-11-22T03:08:05.688Z,0
2022-11-22T03:09:05.214Z,0
2022-11-22T03:10:05.698Z,0
2022-11-22T03:11:04.880Z,0
2022-11-22T03:12:04.843Z,0
2022-11-22T03:13:05.376Z,0
2022-11-22T03:14:05.584Z,0
2022-11-22T03:15:05.065Z,0
2022-11-22T03:16:05.539Z,0
2022-11-22T03:17:05.257Z,0
2022-11-22T03:18:05.254Z,0
2022-11-22T03:19:05.238Z,0
2022-11-22T03:20:04.952Z,0
2022-11-22T03:21:05.471Z,0
2022-11-22T03:22:04.653Z,0
2022-11-22T03:23:05.220Z,0
2022-11-22T03:24:05.131Z,0
2022-11-22T03:25:05.236Z,0
2022-11-22T03:26:05.396Z,0
2022-11-22T03:27:05.329Z,0
2022-11-22T03:28:04.819Z,0
2022-11-22T03:29:05.042Z,0
2022-11-22T03:30:05.283Z,0
2022-11-22T03:31:04.746Z,0
2022-11-22T03:32:04.985Z,0
2022-11-22T03:33:04.964Z,0
2022-11-22T03:49:54.454Z,0
2022-11-22T03:50:53.567Z,0
2022-11-22T03:51:54.067Z,0
2022-11-22T03:52:53.524Z,0
2022-11-22T03:53:54.021Z,0
2022-11-22T03:54:53.999Z,0
2022-11-22T03:55:53.719Z,0
2022-11-22T03:56:53.705Z,0
2022-11-22T03:57:53.932Z,0
2022-11-22T03:58:53.917Z,0
2022-11-22T03:59:54.152Z,0
2022-11-22T04:00:53.644Z,0
2022-11-22T04:01:53.723Z,0
2022-11-22T04:02:53.579Z,0
2022-11-22T04:03:53.829Z,0
2022-11-22T04:04:54.321Z,0
2022-11-22T04:05:54.417Z,0
2022-11-22T04:06:54.036Z,0
2022-11-22T04:07:54.253Z,0
2022-11-22T04:08:54.594Z,0
2022-11-22T04:09:54.229Z,0
2022-11-22T04:10:53.947Z,0
2022-11-22T04:11:54.187Z,0
2022-11-22T04:12:53.919Z,0
2022-11-22T04:13:53.898Z,0
2022-11-22T04:14:53.872Z,0
2022-11-22T04:15:53.599Z,0
2022-11-22T04:16:54.085Z,0
2022-11-22T04:17:53.818Z,0
2022-11-22T04:18:53.797Z,0
2022-11-22T04:19:53.527Z,0
2022-11-22T04:20:53.759Z,0
2022-11-22T04:21:54.172Z,0
2022-11-22T04:22:53.722Z,0
2022-11-22T04:23:53.704Z,0
2022-11-22T04:24:53.936Z,0
2022-11-22T04:25:53.407Z,0
2022-11-22T04:26:53.956Z,0
2022-11-22T04:27:53.640Z,0
2022-11-22T04:29:15.878Z,0
2022-11-22T04:29:53.329Z,0
2022-11-22T04:30:53.324Z,0
2022-11-22T04:31:53.295Z,0
2022-11-22T04:32:53.527Z,0
2022-11-22T04:33:53.565Z,0
2022-11-22T04:34:53.241Z,0
2022-11-22T04:35:53.493Z,0
2022-11-22T04:36:53.466Z,0
2022-11-22T04:37:53.803Z,0
2022-11-22T04:38:52.909Z,0
2022-11-22T04:39:53.404Z,0
2022-11-22T04:40:53.643Z,0
2022-11-22T04:41:53.628Z,0
2022-11-22T04:42:53.343Z,0
2022-11-22T04:43:53.334Z,0
2022-11-22T04:44:53.059Z,0
2022-11-22T04:45:53.291Z,0
2022-11-22T04:46:53.533Z,0
2022-11-22T04:47:57.202Z,0
2022-11-22T04:48:53.025Z,0
2022-11-22T04:49:53.480Z,0
2022-11-22T04:50:53.223Z,0
2022-11-22T04:51:52.963Z,0
2022-11-22T04:52:52.910Z,0
2022-11-22T04:53:53.500Z,0
2022-11-22T04:54:53.124Z,0
2022-11-22T04:55:52.859Z,0
2022-11-22T04:56:53.089Z,0
2022-11-22T04:58:00.539Z,0
2022-11-22T04:58:52.886Z,0
2022-11-22T04:59:53.025Z,0
2022-11-22T05:00:53.413Z,0
2022-11-22T05:01:52.733Z,0
2022-11-22T05:02:52.980Z,0
2022-11-22T05:03:53.288Z,0
2022-11-22T05:04:57.330Z,0
2022-11-22T05:05:53.429Z,0
2022-11-22T05:06:53.163Z,0
2022-11-22T05:07:53.220Z,0
2022-11-22T05:08:52.869Z,0
2022-11-22T05:09:53.195Z,0
2022-11-22T05:10:52.314Z,0
2022-11-22T05:11:52.607Z,0
2022-11-22T05:12:53.044Z,0
2022-11-22T05:13:52.258Z,0
2022-11-22T05:14:52.495Z,0
2022-11-22T05:15:52.475Z,0
2022-11-22T05:16:52.457Z,0
2022-11-22T05:17:52.456Z,0
2022-11-22T05:18:52.674Z,0
2022-11-22T05:19:56.230Z,0
2022-11-22T05:20:52.385Z,0
2022-11-22T05:21:52.364Z,0
2022-11-22T05:22:52.342Z,0
2022-11-22T05:23:52.321Z,0
2022-11-22T05:24:52.571Z,0
2022-11-22T05:25:52.902Z,0
2022-11-22T05:26:52.278Z,0
2022-11-22T05:27:52.272Z,0
2022-11-22T05:28:52.491Z,0
2022-11-22T05:29:52.465Z,0
2022-11-22T05:30:52.453Z,0
2022-11-22T05:31:57.785Z,0
2022-11-22T05:32:52.426Z,0
2022-11-22T05:33:52.150Z,0
2022-11-22T05:34:52.369Z,0
2022-11-22T05:35:52.105Z,0
2022-11-22T05:36:52.338Z,0
2022-11-22T05:37:52.319Z,0
2022-11-22T05:38:52.042Z,0
2022-11-22T05:39:52.297Z,0
2022-11-22T05:40:52.004Z,0
2022-11-22T05:41:52.611Z,0
2022-11-22T05:42:52.228Z,0
2022-11-22T05:43:51.706Z,0
2022-11-22T05:44:52.441Z,0
2022-11-22T05:45:52.427Z,0
2022-11-22T05:46:52.160Z,0
2022-11-22T05:47:51.622Z,0
2022-11-22T05:48:52.116Z,0
2022-11-22T05:49:52.093Z,0
2022-11-22T05:50:52.084Z,0
2022-11-22T05:51:52.064Z,0
2022-11-22T05:52:52.290Z,0
2022-11-22T05:53:52.031Z,0
2022-11-22T05:54:52.006Z,0
2022-11-22T05:55:51.988Z,0
2022-11-22T05:56:52.229Z,0
2022-11-22T05:57:52.322Z,0
2022-11-22T05:58:51.928Z,0
2022-11-22T05:59:51.915Z,0
2022-11-22T06:00:51.895Z,0
2022-11-22T06:01:51.849Z,0
2022-11-22T06:02:52.111Z,4
2022-11-22T06:03:52.098Z,0
2022-11-22T06:04:51.569Z,0
2022-11-22T06:05:51.289Z,0
2022-11-22T06:06:51.528Z,4
2022-11-22T06:07:51.784Z,4
2022-11-22T06:08:51.755Z,4
2022-11-22T06:09:51.723Z,4
2022-11-22T06:10:51.187Z,4
2022-11-22T06:11:51.969Z,4
2022-11-22T06:12:51.677Z,4
2022-11-22T06:13:52.024Z,8
2022-11-22T06:14:51.380Z,8
2022-11-22T06:15:51.871Z,8
2022-11-22T06:16:51.607Z,12
2022-11-22T06:17:51.330Z,12
2022-11-22T06:18:51.670Z,12
2022-11-22T06:19:51.543Z,16
2022-11-22T06:20:51.777Z,16
2022-11-22T06:21:51.256Z,16
2022-11-22T06:22:51.865Z,20
2022-11-22T06:23:51.715Z,24
2022-11-22T06:24:51.191Z,28
2022-11-22T06:25:51.747Z,32
2022-11-22T06:26:51.414Z,36
2022-11-22T06:27:51.401Z,40
2022-11-22T06:28:51.391Z,44
2022-11-22T06:29:51.718Z,52
2022-11-22T06:30:51.706Z,60
2022-11-22T06:31:51.334Z,72
2022-11-22T06:32:51.194Z,76
2022-11-22T06:33:51.271Z,84
2022-11-22T06:34:51.000Z,92
2022-11-22T06:35:50.980Z,100
2022-11-22T06:36:51.246Z,104
2022-11-22T06:37:53.870Z,112
2022-11-22T06:38:51.196Z,120
2022-11-22T06:39:51.418Z,128
2022-11-22T06:40:51.158Z,136
2022-11-22T06:41:51.128Z,148
2022-11-22T06:42:51.120Z,160
2022-11-22T06:43:55.643Z,172
2022-11-22T06:44:51.359Z,188
2022-11-22T06:45:51.429Z,204
2022-11-22T06:46:50.791Z,220
2022-11-22T06:47:51.371Z,232
2022-11-22T06:48:51.007Z,248
2022-11-22T06:49:51.244Z,264
2022-11-22T06:50:50.963Z,280
2022-11-22T06:51:51.332Z,296
2022-11-22T06:52:50.682Z,312
2022-11-22T06:53:55.839Z,328
2022-11-22T06:54:50.639Z,344
2022-11-22T06:56:05.594Z,372
2022-11-22T06:56:50.853Z,388
2022-11-22T06:57:50.581Z,408
2022-11-22T06:58:50.816Z,428
2022-11-22T06:59:51.060Z,444
2022-11-22T07:00:50.452Z,464
2022-11-22T07:01:51.583Z,488
2022-11-22T07:02:50.491Z,512
2022-11-22T07:03:50.466Z,536
2022-11-22T07:05:30.272Z,572
2022-11-22T07:05:50.933Z,580
2022-11-22T07:06:50.507Z,604
2022-11-22T07:07:51.164Z,624
2022-11-22T07:08:50.638Z,652
2022-11-22T07:09:56.643Z,676
2022-11-22T07:10:50.633Z,692
2022-11-22T07:11:50.566Z,712
2022-11-22T07:12:50.292Z,724
2022-11-22T07:13:50.534Z,744
2022-11-22T07:14:50.768Z,764
2022-11-22T07:15:50.238Z,788
2022-11-22T07:16:50.211Z,824
2022-11-22T07:17:50.832Z,868
2022-11-22T07:18:50.703Z,904
2022-11-22T07:19:50.418Z,936
2022-11-22T07:20:50.425Z,964
2022-11-22T07:21:50.722Z,988
2022-11-22T07:22:50.633Z,1008
2022-11-22T07:23:50.206Z,1032
2022-11-22T07:24:50.319Z,1060
2022-11-22T07:25:50.056Z,1100
2022-11-22T07:26:50.293Z,1148
2022-11-22T07:27:50.268Z,1192
2022-11-22T07:28:50.509Z,1252
2022-11-22T07:29:49.980Z,1308
2022-11-22T07:30:51.658Z,1360
2022-11-22T07:31:50.594Z,1404
2022-11-22T07:32:50.571Z,1444
2022-11-22T07:33:50.949Z,1488
2022-11-22T07:34:50.531Z,1540
2022-11-22T07:35:50.524Z,1588
2022-11-22T07:36:54.401Z,1636
2022-11-22T07:37:50.770Z,1660
2022-11-22T07:38:50.240Z,1676
2022-11-22T07:39:50.445Z,1680
2022-11-22T07:40:50.679Z,1688
2022-11-22T07:41:50.418Z,1700
2022-11-22T07:42:53.002Z,1732
2022-11-22T07:43:50.642Z,1776
2022-11-22T07:44:50.624Z,1840
2022-11-22T07:45:50.620Z,1948
2022-11-22T07:46:50.312Z,2080
2022-11-22T07:47:50.558Z,2208
2022-11-22T07:48:50.026Z,2312
2022-11-22T07:49:50.659Z,2400
2022-11-22T07:50:50.233Z,2456
2022-11-22T07:51:50.221Z,2512
2022-11-22T07:52:50.200Z,2540
2022-11-22T07:53:50.183Z,2552
2022-11-22T07:54:49.905Z,2556
2022-11-22T07:55:49.906Z,2572
2022-11-22T07:56:49.880Z,2596
2022-11-22T07:57:50.654Z,2604
2022-11-22T07:58:50.088Z,2628
2022-11-22T07:59:49.822Z,2664
2022-11-22T08:00:50.064Z,2704
2022-11-22T08:01:50.831Z,2736
2022-11-22T08:02:50.299Z,2756
2022-11-22T08:03:50.271Z,2744
2022-11-22T08:04:49.982Z,2724
2022-11-22T08:05:50.732Z,2700
2022-11-22T08:06:49.949Z,2644
2022-11-22T08:07:50.255Z,2640
2022-11-22T08:08:49.672Z,2588
2022-11-22T08:09:49.629Z,2548
2022-11-22T08:10:49.623Z,2528
2022-11-22T08:11:49.859Z,2484
2022-11-22T08:12:49.831Z,2432
2022-11-22T08:13:49.822Z,2436
2022-11-22T08:14:49.807Z,2504
2022-11-22T08:15:51.502Z,2544
2022-11-22T08:16:49.861Z,2568
2022-11-22T08:17:49.785Z,2596
2022-11-22T08:18:49.471Z,2564
2022-11-22T08:19:49.961Z,2532
2022-11-22T08:20:49.962Z,2536
2022-11-22T08:21:53.962Z,2560
2022-11-22T08:22:49.666Z,2584
2022-11-22T08:23:49.639Z,2648
2022-11-22T08:24:49.362Z,2704
2022-11-22T08:25:49.336Z,2696
2022-11-22T08:26:49.835Z,2672
2022-11-22T08:27:49.308Z,2644
2022-11-22T08:28:49.823Z,2660
2022-11-22T08:29:49.776Z,2720
2022-11-22T08:30:49.504Z,2776
2022-11-22T08:31:49.773Z,2812
2022-11-22T08:32:49.752Z,2844
2022-11-22T08:33:49.712Z,2868
2022-11-22T08:34:53.781Z,2860
2022-11-22T08:35:49.428Z,2808
2022-11-22T08:36:48.883Z,2836
2022-11-22T08:37:50.119Z,2788
2022-11-22T08:38:48.859Z,2804
2022-11-22T08:39:49.343Z,2880
2022-11-22T08:40:49.329Z,2992
2022-11-22T08:41:49.403Z,3144
2022-11-22T08:42:49.542Z,3256
2022-11-22T08:43:49.267Z,3312
2022-11-22T08:44:49.508Z,3344
2022-11-22T08:45:49.489Z,3364
2022-11-22T08:46:49.457Z,3364
2022-11-22T08:47:49.224Z,3344
2022-11-22T08:48:49.414Z,3324
2022-11-22T08:49:49.406Z,3300
2022-11-22T08:50:49.632Z,3224
2022-11-22T08:51:49.371Z,3180
2022-11-22T08:52:49.648Z,3184
2022-11-22T08:53:49.971Z,3224
2022-11-22T08:54:49.580Z,3244
2022-11-22T08:55:49.544Z,3256
2022-11-22T08:56:49.121Z,3272
2022-11-22T08:57:49.266Z,3304
2022-11-22T08:58:49.450Z,3336
2022-11-22T08:59:49.291Z,3356
2022-11-22T09:00:48.973Z,3372
2022-11-22T09:01:49.663Z,3372
2022-11-22T09:02:49.419Z,3332
2022-11-22T09:03:49.415Z,3308
2022-11-22T09:04:48.875Z,3276
2022-11-22T09:08:28.970Z,3148
2022-11-22T09:09:45.743Z,3092
2022-11-22T09:10:27.982Z,2948
2022-11-22T09:11:27.840Z,2692
2022-11-22T09:12:27.838Z,2784
2022-11-22T09:13:27.795Z,2912
2022-11-22T09:14:27.791Z,3084
2022-11-22T09:15:27.806Z,3216
2022-11-22T09:16:27.743Z,3100
2022-11-22T09:17:27.993Z,2976
2022-11-22T09:18:27.959Z,2992
2022-11-22T09:19:28.334Z,2884
2022-11-22T09:20:27.418Z,2768
2022-11-22T09:21:27.924Z,2808
2022-11-22T09:22:33.555Z,2720
2022-11-22T09:23:27.370Z,2228
2022-11-22T09:24:27.348Z,2864
2022-11-22T09:25:28.336Z,3064
2022-11-22T09:26:27.677Z,3112
2022-11-22T09:27:27.805Z,3092
2022-11-22T09:28:27.551Z,2968
2022-11-22T09:29:27.784Z,2868
2022-11-22T09:30:27.539Z,2852
2022-11-22T09:31:27.492Z,2744
2022-11-22T09:32:33.757Z,2608
2022-11-22T09:33:27.444Z,2616
2022-11-22T09:34:27.678Z,2664
2022-11-22T09:35:27.448Z,2664
2022-11-22T09:36:27.185Z,2696
2022-11-22T09:37:27.536Z,2764
2022-11-22T09:38:27.104Z,2824
2022-11-22T09:39:27.472Z,2916
2022-11-22T09:40:27.256Z,3044
2022-11-22T09:41:28.116Z,3116
2022-11-22T09:42:27.285Z,3172
2022-11-22T09:43:27.028Z,3244
2022-11-22T09:44:27.523Z,3300
2022-11-22T09:45:27.513Z,3360
2022-11-22T09:46:27.224Z,3532
2022-11-22T09:47:27.565Z,3632
2022-11-22T09:48:27.184Z,3736
2022-11-22T09:49:27.189Z,3732
2022-11-22T09:50:27.092Z,3804
2022-11-22T09:51:27.407Z,3940
2022-11-22T09:52:27.136Z,4068
2022-11-22T09:53:26.920Z,4204
2022-11-22T09:54:27.364Z,4236
2022-11-22T09:55:31.153Z,4300
2022-11-22T09:56:27.307Z,4344
2022-11-22T09:57:27.766Z,4428
2022-11-22T09:58:26.767Z,4428
2022-11-22T09:59:27.527Z,4536
2022-11-22T10:00:27.026Z,4624
2022-11-22T10:01:27.418Z,4696
2022-11-22T10:02:26.967Z,4868
2022-11-22T10:03:26.688Z,5012
2022-11-22T10:04:26.948Z,5144
2022-11-22T10:05:26.983Z,5220
2022-11-22T10:06:26.639Z,5300
2022-11-22T10:07:27.426Z,5356
2022-11-22T10:08:26.586Z,5368
2022-11-22T10:09:26.827Z,5384
2022-11-22T10:10:26.819Z,5400
2022-11-22T10:11:28.929Z,5384
2022-11-22T10:12:26.285Z,5420
2022-11-22T10:13:27.499Z,5560
2022-11-22T10:14:26.756Z,5688
2022-11-22T10:15:26.720Z,5892
2022-11-22T10:16:26.451Z,6200
2022-11-22T10:17:26.689Z,6548
2022-11-22T10:18:26.679Z,6976
2022-11-22T10:19:26.923Z,7380
2022-11-22T10:20:26.921Z,7736
2022-11-22T10:21:26.883Z,7868
2022-11-22T10:22:26.352Z,7804
2022-11-22T10:23:26.602Z,7596
2022-11-22T10:24:26.335Z,7352
2022-11-22T10:25:26.307Z,7116
2022-11-22T10:26:26.561Z,6876
2022-11-22T10:27:26.019Z,6364
2022-11-22T10:28:26.518Z,5996
2022-11-22T10:29:27.357Z,5832
2022-11-22T10:30:26.217Z,5508
2022-11-22T10:31:26.456Z,5548
2022-11-22T10:32:26.555Z,5488
2022-11-22T10:33:26.686Z,5272
2022-11-22T10:34:26.420Z,5080
2022-11-22T10:35:26.393Z,4912
2022-11-22T10:36:26.844Z,4820
2022-11-22T10:37:26.127Z,4860
2022-11-22T10:38:26.384Z,4988
2022-11-22T10:39:30.087Z,5092
2022-11-22T10:40:26.679Z,5304
2022-11-22T10:41:26.600Z,5412
2022-11-22T10:42:26.332Z,5424
2022-11-22T10:43:26.564Z,5428
2022-11-22T10:44:26.544Z,5420
2022-11-22T10:45:27.275Z,5312
2022-11-22T10:46:26.515Z,5044
2022-11-22T10:47:29.161Z,4964
2022-11-22T10:48:26.735Z,5248
2022-11-22T10:49:26.217Z,5508
2022-11-22T10:50:26.447Z,5508
2022-11-22T10:51:26.732Z,5476
2022-11-22T10:52:26.689Z,5500
2022-11-22T10:53:26.411Z,5376
2022-11-22T10:54:26.148Z,5292
2022-11-22T10:55:26.643Z,5032
2022-11-22T10:56:26.359Z,4816
2022-11-22T10:57:26.605Z,4224
2022-11-22T10:58:26.332Z,3924
2022-11-22T10:59:34.208Z,3648
2022-11-22T11:00:26.557Z,3584
2022-11-22T11:01:27.186Z,3608
2022-11-22T11:02:26.535Z,3616
2022-11-22T11:03:26.247Z,3736
2022-11-22T11:04:26.231Z,4000
2022-11-22T11:05:25.958Z,4156
2022-11-22T11:07:17.322Z,4292
2022-11-22T11:07:27.217Z,4296
2022-11-22T11:10:10.614Z,3892
2022-11-22T11:10:39.671Z,3948
2022-11-22T11:11:27.473Z,4020
2022-11-22T11:12:27.971Z,4044
2022-11-22T11:13:27.947Z,3984
2022-11-22T11:14:27.646Z,3788
2022-11-22T11:15:27.178Z,3464
2022-11-22T11:16:27.396Z,3540
2022-11-22T11:17:28.282Z,3584
2022-11-22T11:18:27.396Z,3520
2022-11-22T11:19:27.845Z,3396
2022-11-22T11:20:27.598Z,3228
2022-11-22T11:21:27.570Z,3388
2022-11-22T11:23:19.085Z,3636
2022-11-22T11:23:28.365Z,3644
2022-11-22T11:24:28.998Z,3668
2022-11-22T11:25:29.099Z,3904
2022-11-22T11:26:29.109Z,4392
2022-11-22T11:27:29.063Z,4228
2022-11-22T11:28:29.069Z,4644
2022-11-22T11:29:31.060Z,5052
2022-11-22T11:30:29.042Z,5180
2022-11-22T11:31:28.785Z,5080
2022-11-22T11:32:28.728Z,5012
2022-11-22T11:33:29.498Z,4588
2022-11-22T11:34:28.935Z,4524
2022-11-22T11:35:28.172Z,4436
2022-11-22T11:36:28.660Z,4480
2022-11-22T11:37:28.737Z,4752
2022-11-22T11:38:28.375Z,4596
2022-11-22T11:39:28.626Z,4376
2022-11-22T11:40:28.351Z,4128
2022-11-22T11:41:28.592Z,4124
2022-11-22T11:42:28.064Z,3992
2022-11-22T11:43:28.295Z,3948
2022-11-22T11:44:28.985Z,3840
2022-11-22T11:45:28.282Z,3820
2022-11-22T11:46:28.503Z,3672
2022-11-22T11:47:28.335Z,3564
2022-11-22T11:48:28.217Z,3024
2022-11-22T11:49:29.380Z,3000
2022-11-22T11:50:31.519Z,3068
2022-11-22T11:51:28.459Z,3276
2022-11-22T11:52:28.430Z,3632
2022-11-22T11:53:28.136Z,3644
2022-11-22T11:54:28.633Z,3584
2022-11-22T11:55:28.637Z,3452
2022-11-22T11:56:28.094Z,3352
2022-11-22T11:57:28.329Z,3260
2022-11-22T11:58:29.270Z,3216
2022-11-22T11:59:28.264Z,3180
2022-11-22T12:00:28.089Z,3220
2022-11-22T12:01:27.797Z,3408
2022-11-22T12:02:28.542Z,3696
2022-11-22T12:03:28.248Z,3884
2022-11-22T12:04:28.075Z,4044
2022-11-22T12:05:28.949Z,4140
2022-11-22T12:06:28.194Z,4104
2022-11-22T12:07:28.448Z,4136
2022-11-22T12:08:27.647Z,4088
2022-11-22T12:09:28.404Z,4052
2022-11-22T12:10:27.870Z,3900
2022-11-22T12:11:28.380Z,3944
2022-11-22T12:12:27.843Z,4068
2022-11-22T12:13:28.345Z,4124
2022-11-22T12:14:49.004Z,4052
2022-11-22T12:15:28.313Z,3956
2022-11-22T12:16:27.786Z,3888
2022-11-22T12:17:28.273Z,3772
2022-11-22T12:18:28.267Z,3484
2022-11-22T12:19:31.906Z,3348
2022-11-22T12:20:27.970Z,3164
2022-11-22T12:21:28.695Z,2776
2022-11-22T12:22:55.833Z,2972
2022-11-22T12:23:27.936Z,2916
2022-11-22T12:25:36.945Z,3004
2022-11-22T12:25:48.905Z,2944
2022-11-22T12:26:48.901Z,2952
2022-11-22T12:27:48.629Z,3184
2022-11-22T12:28:48.594Z,2796
2022-11-22T12:29:48.571Z,2764
2022-11-22T12:30:48.314Z,2564
2022-11-22T12:31:48.539Z,2380
2022-11-22T12:32:49.284Z,2356
2022-11-22T12:33:49.800Z,2144
2022-11-22T12:34:49.812Z,2228
2022-11-22T12:35:49.479Z,2108
2022-11-22T12:36:50.161Z,2008
2022-11-22T12:37:49.479Z,1980
2022-11-22T12:38:49.180Z,2040
2022-11-22T12:39:49.675Z,2024
2022-11-22T12:40:49.658Z,2156
2022-11-22T12:41:49.430Z,2216
2022-11-22T12:42:49.386Z,2488
2022-11-22T12:43:49.358Z,2580
2022-11-22T12:44:49.359Z,2532
2022-11-22T12:45:49.320Z,2268
2022-11-22T12:46:49.083Z,2168
2022-11-22T12:47:49.037Z,2060
2022-11-22T12:48:55.060Z,2400
2022-11-22T12:49:49.265Z,2384
2022-11-22T12:50:49.244Z,2272
2022-11-22T12:51:48.969Z,2252
2022-11-22T12:52:49.943Z,2692
2022-11-22T12:53:49.206Z,2520
2022-11-22T12:54:48.672Z,2276
2022-11-22T12:55:48.913Z,2032
2022-11-22T12:56:48.905Z,2296
2022-11-22T12:57:49.482Z,2680
2022-11-22T12:58:49.364Z,2884
2022-11-22T12:59:49.097Z,2652
2022-11-22T13:00:49.109Z,2452
2022-11-22T13:01:49.306Z,2188
2022-11-22T13:02:51.218Z,2728
2022-11-22T13:03:48.552Z,2788
2022-11-22T13:04:48.522Z,2572
2022-11-22T13:05:49.017Z,2516
2022-11-22T13:06:48.747Z,2476
2022-11-22T13:07:49.342Z,2656
2022-11-22T13:09:03.640Z,3008
2022-11-22T13:09:49.203Z,3200
2022-11-22T13:10:48.931Z,3400
2022-11-22T13:11:48.917Z,3464
2022-11-22T13:12:48.644Z,3532
2022-11-22T13:13:48.864Z,3548
2022-11-22T13:14:48.858Z,3540
2022-11-22T13:15:48.835Z,3528
2022-11-22T13:16:49.079Z,3504
2022-11-22T13:17:48.812Z,3472
2022-11-22T13:18:49.072Z,3432
2022-11-22T13:19:51.788Z,3384
2022-11-22T13:20:50.438Z,3316
2022-11-22T13:21:49.026Z,3252
2022-11-22T13:22:48.726Z,3184
2022-11-22T13:23:48.720Z,3132
2022-11-22T13:24:49.356Z,3084
2022-11-22T13:25:48.678Z,3064
2022-11-22T13:26:48.656Z,3072
2022-11-22T13:27:48.904Z,3052
2022-11-22T13:28:48.672Z,3028
2022-11-22T13:29:48.620Z,2992
2022-11-22T13:30:48.348Z,2952
2022-11-22T13:31:48.584Z,2912
2022-11-22T13:32:48.050Z,2860
2022-11-22T13:33:48.550Z,2820
2022-11-22T13:34:48.286Z,2772
2022-11-22T13:35:48.514Z,2724
2022-11-22T13:36:48.605Z,2664
2022-11-22T13:37:48.490Z,2608
2022-11-22T13:38:48.479Z,2556
2022-11-22T13:39:48.198Z,2520
2022-11-22T13:40:49.205Z,2484
2022-11-22T13:41:48.429Z,2448
2022-11-22T13:42:48.665Z,2404
2022-11-22T13:43:48.646Z,2352
2022-11-22T13:44:48.363Z,2300
2022-11-22T13:45:48.348Z,2236
2022-11-22T13:46:48.583Z,2180
2022-11-22T13:47:48.216Z,2128
2022-11-22T13:48:48.562Z,2092
2022-11-22T13:49:54.982Z,2052
2022-11-22T13:50:48.268Z,2032
2022-11-22T13:51:48.261Z,2024
2022-11-22T13:52:48.796Z,2028
2022-11-22T13:53:48.500Z,2044
2022-11-22T13:54:48.045Z,2056
2022-11-22T13:55:49.438Z,2068
2022-11-22T13:56:48.854Z,2068
2022-11-22T13:57:47.895Z,2056
2022-11-22T13:58:55.837Z,2036
2022-11-22T13:59:48.131Z,2016
2022-11-22T14:00:48.449Z,1992
2022-11-22T14:01:48.649Z,1952
2022-11-22T14:02:48.067Z,1912
2022-11-22T14:03:47.565Z,1868
2022-11-22T14:04:47.799Z,1804
2022-11-22T14:05:48.938Z,1740
2022-11-22T14:06:48.262Z,1688
2022-11-22T14:07:48.050Z,1636
2022-11-22T14:08:47.462Z,1588
2022-11-22T14:09:47.950Z,1548
2022-11-22T14:10:48.191Z,1516
2022-11-22T14:11:48.199Z,1484
2022-11-22T14:12:48.662Z,1448
2022-11-22T14:13:47.372Z,1404
2022-11-22T14:14:47.876Z,1356
2022-11-22T14:15:47.598Z,1316
2022-11-22T14:16:47.612Z,1276